Shockey Truck Trail (448) Station Data

Red Flag Warning: No
Fire Weather Zone: 258
SDGE Region: Mountain Empire
Lat/Lon: 32.634/-116.423

Observations

Time Wind Speed/Gust Temp(F) RH Fuel Moist Fuel Temp(F) Dewpt(F) Tmax(F) Tmin(F) Accum Precip 10-min Precip SL Press(mb)
5/24 8:30am 41 2 G 4 70° 37% - - 43° 71.1° 49.4° - - 872.0
5/24 8:20am 22 1 G 2 70° 38% - - 43° 70.5° 49.4° - - 872.0
5/24 8:10am 20 0 G 1 70° 38% - - 43° 70.1° 49.4° - - 872.0
5/24 8:00am 43 1 G 2 67° 40% - - 43° 70° 49.4° - - 873.0
5/24 7:50am 47 2 G 5 64° 46% - - 43° 65° 49.4° - - 874.0
5/24 7:40am 46 3 G 5 63° 48% - - 43° 63.3° 49.4° - - 875.0
5/24 7:30am 27 2 G 3 61° 52% - - 43° 61.7° 49.4° - - 876.0
5/24 7:20am 18 3 G 4 59° 59% - - 45° 60.1° 49.4° - - 879.0
5/24 7:10am 18 3 G 4 59° 59% - - 45° 60.1° 49.4° - - 878.0
5/24 7:00am 17 1 G 2 57° 64% - - 45° 59.2° 49.4° - - 880.0
5/24 6:50am 20 2 G 5 55° 68% - - 44° 56.5° 49.4° - - 881.0
5/24 6:40am 37 5 G 8 53° 70% - - 44° 56.5° 49.4° - - 882.0
5/24 6:30am 32 4 G 6 52° 71% - - 43° 56.5° 49.4° - - 882.0
5/24 6:20am 38 6 G 9 52° 69% - - 43° 56.5° 49.4° - - 882.0
5/24 6:10am 45 6 G 8 52° 72% - - 43° 56.5° 49.4° - - 883.0
5/24 6:00am 42 7 G 10 51° 75% - - 43° 56.5° 49.4° - - 884.0
5/24 5:50am 40 6 G 9 50° 78% - - 43° 56.5° 49.4° - - 885.0
5/24 5:40am 40 5 G 7 50° 79% - - 43° 56.5° 49.4° - - 885.0
5/24 5:30am 35 5 G 7 50° 78% - - 43° 56.5° 49.7° - - 885.0
5/24 5:20am 33 5 G 8 50° 78% - - 43° 56.5° 49.8° - - 885.0
5/24 5:10am 38 5 G 8 50° 77% - - 43° 56.5° 49.9° - - 884.0
5/24 5:00am 50 7 G 10 52° 75% - - 44° 56.5° 50.7° - - 884.0
5/24 4:50am 52 7 G 9 52° 75% - - 44° 56.5° 50.7° - - 884.0
5/24 4:40am 50 7 G 11 51° 76% - - 44° 56.5° 50.7° - - 884.0
5/24 4:30am 40 5 G 8 51° 77% - - 44° 56.5° 50.7° - - 884.0
5/24 4:20am 42 5 G 7 51° 77% - - 44° 56.5° 50.8° - - 884.0
5/24 4:10am 39 5 G 7 51° 75% - - 44° 56.5° 50.8° - - 884.0
5/24 4:00am 57 6 G 8 54° 71% - - 45° 56.5° 51.9° - - 882.0
5/24 3:50am 56 7 G 10 53° 69% - - 44° 56.5° 51.9° - - 881.0
5/24 3:40am 56 7 G 9 54° 66% - - 43° 56.5° 51.9° - - 881.0
5/24 3:30am 59 8 G 10 53° 69% - - 43° 56.5° 51.9° - - 882.0
5/24 3:20am 57 7 G 10 53° 74% - - 44° 56.5° 51.9° - - 884.0
5/24 3:10am 49 6 G 8 52° 74% - - 44° 56.5° 51.9° - - 884.0
5/24 3:00am 45 5 G 8 52° 75% - - 45° 56.5° 52.1° - - 884.0
5/24 2:50am 41 5 G 9 52° 75% - - 45° 56.5° 52.2° - - 884.0
5/24 2:40am 45 6 G 8 53° 75% - - 45° 56.5° 52.3° - - 884.0
5/24 2:30am 36 5 G 7 52° 76% - - 45° 56.5° 52.3° - - 884.0
5/24 2:20am 40 6 G 9 53° 75% - - 45° 56.5° 52.5° - - 884.0
5/24 2:10am 45 6 G 8 53° 76% - - 46° 56.5° 52.6° - - 884.0
5/24 2:00am 42 5 G 8 53° 75% - - 45° 56.5° 52.7° - - 884.0
5/24 1:50am 39 5 G 8 53° 75% - - 45° 56.5° 53° - - 884.0
5/24 1:40am 41 5 G 7 53° 74% - - 45° 56.5° 53° - - 884.0
5/24 1:30am 41 6 G 8 53° 73% - - 45° 56.5° 53.1° - - 883.0
5/24 1:20am 40 6 G 8 54° 72% - - 45° 56.5° 53.2° - - 883.0
5/24 1:10am 41 6 G 9 53° 73% - - 45° 56.5° 53.2° - - 883.0
5/24 1:00am 39 5 G 8 54° 73% - - 46° 56.5° 53.5° - - 883.0
5/24 12:50am 53 6 G 9 56° 70% - - 46° 56.5° 55.1° - - 883.0
5/24 12:40am 59 7 G 9 56° 69% - - 46° 56.5° 55.4° - - 882.0
5/24 12:30am 54 6 G 9 56° 69% - - 46° 56.5° 55.4° - - 883.0
5/24 12:20am 51 6 G 9 56° 72% - - 47° 56.5° 55.4° - - 884.0
5/24 12:10am 41 5 G 8 56° 72% - - 47° 56.5° 55.4° - - 884.0
5/24 12:00am 43 4 G 6 56° 72% - - 47° 94.3° 52° - - 884.0
5/23 11:50pm 38 3 G 5 57° 71% - - 48° 94.3° 52° - - 883.0
5/23 11:40pm 39 4 G 7 58° 70% - - 48° 94.3° 52° - - 883.0
5/23 11:30pm 49 5 G 7 58° 70% - - 48° 94.3° 52° - - 883.0
5/23 11:20pm 45 5 G 8 58° 70% - - 48° 94.3° 52° - - 883.0
5/23 11:10pm 38 4 G 6 59° 69% - - 49° 94.3° 52° - - 883.0
5/23 11:00pm 35 4 G 7 59° 69% - - 49° 94.3° 52° - - 883.0
5/23 10:50pm 39 4 G 6 59° 68% - - 49° 94.3° 52° - - 883.0
5/23 10:40pm 42 4 G 6 60° 67% - - 49° 94.3° 52° - - 882.0
5/23 10:30pm 44 6 G 8 60° 66% - - 49° 94.3° 52° - - 882.0
5/23 10:20pm 46 6 G 8 61° 65% - - 49° 94.3° 52° - - 882.0
5/23 10:10pm 53 6 G 8 63° 62% - - 50° 94.3° 52° - - 881.0
5/23 10:00pm 54 5 G 7 63° 62% - - 50° 94.3° 52° - - 881.0
5/23 9:50pm 47 4 G 7 64° 60% - - 50° 94.3° 52° - - 881.0
5/23 9:40pm 62 4 G 5 65° 60% - - 50° 94.3° 52° - - 881.0
5/23 9:30pm 54 3 G 5 65° 58% - - 50° 94.3° 52° - - 880.0
5/23 9:20pm 357 1 G 3 67° 56% - - 51° 94.3° 52° - - 879.0
5/23 9:10pm 246 0 G 1 68° 54% - - 51° 94.3° 52° - - 879.0
5/23 9:00pm 241 1 G 3 69° 52% - - 51° 94.3° 52° - - 879.0
5/23 8:50pm 318 1 G 2 70° 51% - - 51° 94.3° 52° - - 878.0
5/23 8:40pm 340 0 G 1 71° 50% - - 51° 94.3° 52° - - 878.0
5/23 8:30pm 16 0 G 1 71° 49% - - 51° 94.3° 52° - - 878.0
5/23 8:20pm 328 2 G 2 72° 47% - - 51° 94.3° 52° - - 877.0
5/23 8:10pm 288 2 G 2 73° 45% - - 51° 94.3° 52° - - 877.0
5/23 8:00pm 261 2 G 3 74° 45% - - 51° 94.3° 52° - - 877.0
5/23 7:50pm 248 3 G 4 74° 44% - - 51° 94.3° 52° - - 877.0
5/23 7:40pm 242 4 G 7 75° 43% - - 51° 94.3° 52° - - 876.0
5/23 7:30pm 242 6 G 8 76° 41% - - 51° 94.3° 52° - - 876.0
5/23 7:20pm 241 6 G 9 77° 38% - - 50° 94.3° 52° - - 875.0
5/23 7:10pm 234 6 G 9 79° 34% - - 48° 94.3° 52° - - 874.0
5/23 7:00pm 231 7 G 11 80° 31% - - 47° 94.3° 52° - - 873.0
5/23 6:50pm 225 7 G 11 81° 29% - - 46° 94.3° 52° - - 873.0
5/23 6:40pm 230 7 G 12 82° 27% - - 45° 94.3° 52° - - 872.0
5/23 6:30pm 228 9 G 14 83° 27% - - 45° 94.3° 52° - - 872.0
5/23 6:20pm 231 8 G 13 84° 23% - - 42° 94.3° 52° - - 871.0
5/23 6:10pm 230 8 G 12 85° 19% - - 37° 94.3° 52° - - 869.0
5/23 6:00pm 227 9 G 13 85° 18% - - 37° 94.3° 52° - - 869.0
5/23 5:50pm 232 10 G 15 85° 19% - - 38° 94.3° 52° - - 870.0
5/23 5:40pm 230 9 G 13 85° 19% - - 39° 94.3° 52° - - 870.0
5/23 5:30pm 240 8 G 12 86° 19% - - 39° 94.3° 52° - - 870.0
5/23 5:20pm 254 7 G 14 86° 18% - - 37° 94.3° 52° - - 870.0
5/23 5:10pm 263 5 G 11 87° 15% - - 34° 94.3° 52° - - 869.0
5/23 5:00pm 289 5 G 11 87° 15% - - 33° 94.3° 52° - - 869.0
5/23 4:50pm 290 5 G 10 87° 18% - - 38° 94.3° 52° - - 870.0
5/23 4:40pm 266 7 G 15 86° 20% - - 40° 94.3° 52° - - 871.0
5/23 4:30pm 266 7 G 12 86° 21% - - 42° 94.3° 52° - - 871.0
5/23 4:20pm 283 7 G 14 86° 23% - - 44° 94.3° 52° - - 872.0
5/23 4:10pm 283 7 G 13 87° 24% - - 45° 94.3° 52° - - 872.0
5/23 4:00pm 267 9 G 16 86° 25% - - 46° 94.3° 52° - - 873.0
5/23 3:50pm 251 9 G 16 87° 24% - - 46° 94.3° 52° - - 872.0
5/23 3:40pm 243 10 G 18 87° 24% - - 46° 94.3° 52° - - 873.0
5/23 3:30pm 228 13 G 21 88° 22% - - 45° 94.3° 52° - - 872.0
5/23 3:20pm 227 12 G 20 89° 18% - - 41° 94.3° 52° - - 871.0
5/23 3:10pm 252 9 G 15 91° 14% - - 35° 94.3° 52° - - 870.0
5/23 3:00pm 235 9 G 16 91° 17% - - 41° 94.3° 52° - - 871.0
5/23 2:50pm 237 11 G 17 91° 13% - - 34° 94.3° 52° - - 869.0
5/23 2:40pm 229 12 G 20 90° 12% - - 30° 94.3° 52° - - 869.0
5/23 2:30pm 228 14 G 21 90° 12% - - 31° 94.3° 52° - - 869.0
5/23 2:20pm 233 13 G 21 91° 13% - - 34° 94.3° 52° - - 869.0
5/23 2:10pm 232 12 G 19 91° 12% - - 30° 94.3° 52° - - 869.0
5/23 2:00pm 238 12 G 19 91° 11% - - 31° 94.3° 52° - - 869.0
5/23 1:50pm 234 12 G 19 91° 11% - - 29° 94.3° 52° - - 868.0
5/23 1:40pm 237 12 G 19 91° 12% - - 31° 94.3° 52° - - 869.0
5/23 1:30pm 237 12 G 19 92° 12% - - 31° 94.3° 52° - - 869.0
5/23 1:20pm 229 12 G 19 91° 13% - - 34° 94.3° 52° - - 869.0
5/23 1:10pm 240 10 G 15 92° 13% - - 33° 94.3° 52° - - 869.0
5/23 1:00pm 239 12 G 18 92° 12% - - 32° 94.3° 52° - - 869.0
5/23 12:50pm 227 9 G 14 93° 10% - - 29° 94.3° 52° - - 868.0
5/23 12:40pm 252 8 G 15 93° 10% - - 30° 94.3° 52° - - 868.0
5/23 12:30pm 235 5 G 9 93° 9% - - 25° 94.2° 52° - - 868.0
5/23 12:20pm 195 4 G 13 93° 9% - - 25° 93.7° 52° - - 868.0
5/23 12:10pm 233 6 G 12 93° 9% - - 25° 93.7° 52° - - 868.0
5/23 12:00pm 253 6 G 13 92° 9% - - 25° 93.5° 52° - - 867.0
5/23 11:50am 173 4 G 11 92° 9% - - 26° 93.5° 52° - - 868.0
5/23 11:40am 232 5 G 10 92° 9% - - 26° 93.5° 52° - - 867.0
5/23 11:30am 305 3 G 9 93° 9% - - 26° 93.5° 52° - - 868.0
5/23 11:20am 23 3 G 7 92° 10% - - 26° 93.2° 52° - - 867.0
5/23 11:10am 230 6 G 11 91° 10% - - 26° 91.8° 52° - - 867.0
5/23 11:00am 272 4 G 10 91° 10% - - 28° 91.8° 52° - - 867.0
5/23 10:50am 283 4 G 9 91° 11% - - 29° 91.8° 52° - - 867.0
5/23 10:40am 275 5 G 9 90° 12% - - 29° 90.2° 52° - - 867.0
5/23 10:30am 275 5 G 9 89° 13% - - 31° 89.7° 52° - - 868.0
5/23 10:20am 286 4 G 8 88° 14% - - 33° 88.4° 52° - - 868.0
5/23 10:10am 252 5 G 8 87° 15% - - 34° 87.4° 52° - - 868.0
5/23 10:00am 234 4 G 7 86° 17% - - 37° 87° 52° - - 868.0
5/23 9:50am 247 3 G 7 86° 18% - - 37° 86.5° 52° - - 869.0
5/23 9:40am 237 3 G 6 84° 18% - - 37° 84.8° 52° - - 868.0
5/23 9:30am 227 3 G 5 83° 19% - - 37° 83.9° 52° - - 869.0
5/23 9:20am 219 3 G 5 82° 21% - - 38° 82.5° 52° - - 869.0
5/23 9:10am 248 2 G 5 82° 21% - - 38° 82° 52° - - 869.0
5/23 9:00am 280 1 G 3 81° 21% - - 38° 82° 52° - - 869.0
5/23 8:50am 12 2 G 3 79° 23% - - 38° 80.6° 52° - - 869.0
5/23 8:40am 356 1 G 4 78° 25% - - 39° 79° 52° - - 869.0
5/23 8:30am 329 1 G 3 77° 27% - - 41° 77.4° 52° - - 870.0
5/23 8:20am 246 1 G 2 76° 27% - - 40° 76.8° 52° - - 869.0
5/23 8:10am 120 1 G 2 75° 30% - - 42° 76.6° 52° - - 870.0
5/23 8:00am 42 1 G 2 74° 32% - - 42° 74.8° 52° - - 870.0
5/23 7:50am 31 1 G 3 70° 35% - - 41° 71.7° 52° - - 871.0
5/23 7:40am 28 1 G 4 68° 35% - - 40° 69.6° 52° - - 871.0
5/23 7:30am 57 3 G 5 64° 40% - - 40° 65.6° 52° - - 872.0
5/23 7:20am 50 4 G 6 62° 43% - - 39° 63.1° 52° - - 873.0
5/23 7:10am 53 5 G 8 59° 46% - - 39° 60.4° 52° - - 874.0
5/23 7:00am 49 6 G 9 57° 49% - - 39° 58.3° 52° - - 874.0
5/23 6:50am 37 5 G 8 56° 52% - - 39° 58.3° 52° - - 875.0
5/23 6:40am 40 5 G 7 56° 51% - - 38° 58.3° 52° - - 875.0
5/23 6:30am 51 5 G 6 56° 50% - - 38° 58.3° 52° - - 874.0
5/23 6:20am 34 3 G 4 56° 49% - - 37° 58.3° 52° - - 874.0
5/23 6:10am 41 4 G 7 56° 48% - - 36° 58.3° 52° - - 873.0
5/23 6:00am 57 5 G 8 55° 51% - - 37° 58.3° 52° - - 874.0